Eponyma — C6DN4 — position and weather

sailwx.info

Track history (hours):
 
Tides and Currents Weather Stations Pressure Air Temp Water Temp Dewpoint Dewpoint Depression Visibility Wind Speed Wind Dir Waves Ship Positions

Eponyma

Last reported at 2018-Jan-21 15:47 UTC. Time now 2018-Jan-23 10:09 UTC.
Position N 34°02' E 129°49'.

Length 142 m; draft 7.7 m.

Type: Cargo ship. MMSI: 311000725.

Date/timePositionNaut miles runAvg speedWind from/ knotsBaromVisibWave heightAir tempDewpointWater temp
2018-Jan-21 15:47N 34°02' E 129°49'517.1
2018-Jan-21 15:30N 34°02' E 129°55'817.0
2018-Jan-21 15:00N 34°03' E 130°05'917.5
2018-Jan-21 14:30N 34°03' E 130°16'917.4
2018-Jan-21 14:00N 34°03' E 130°26'917.6
2018-Jan-21 13:30N 34°03' E 130°37'917.1
2018-Jan-21 13:00N 34°03' E 130°47'612.8
2018-Jan-21 12:30N 33°58' E 130°53'4 8.4
2018-Jan-21 12:01N 33°55' E 130°55'5 9.5
2018-Jan-21 11:30N 33°58' E 130°58'4 7.5
2018-Jan-21 11:01N 33°57' E 131°03'714.8
2018-Jan-21 10:31N 33°53' E 131°10'917.5
2018-Jan-21 10:01N 33°51' E 131°20'917.8
2018-Jan-21 09:31N 33°49' E 131°31'917.3
2018-Jan-21 09:01N 33°47' E 131°41'815.9
2018-Jan-21 08:30N 33°40' E 131°47'816.8
2018-Jan-21 08:01N 33°33' E 131°51'816.5
2018-Jan-21 07:30N 33°25' E 131°56'815.8
2018-Jan-21 07:00N 33°18' E 132°00'715.0
2018-Jan-21 06:31N 33°12' E 132°05'20615.1
2018-Jan-20 16:52N 33°41' E 136°10'1217.5
2018-Jan-20 16:10N 33°49' E 136°21'317.6
2018-Jan-20 16:00N 33°50' E 136°24'1217.9
2018-Jan-20 15:21N 33°58' E 136°34'818.0
2018-Jan-20 14:55N 34°03' E 136°41'718.0
2018-Jan-20 14:30N 34°08' E 136°48'2116.3
2018-Jan-20 13:12N 34°27' E 137°01'315.6
2018-Jan-20 13:00N 34°30' E 137°02'613.1
2018-Jan-20 12:30N 34°35' E 136°58'917.2
2018-Jan-20 12:00N 34°41' E 136°49'917.5
2018-Jan-20 11:31N 34°49' E 136°46'816.5
2018-Jan-20 11:01N 34°57' E 136°46'5 9.0
2018-Jan-20 10:30N 35°01' E 136°48'0 0.2
2018-Jan-20 10:00N 35°01' E 136°48'0 0.0
2018-Jan-20 09:30N 35°01' E 136°48'0 0.0
2018-Jan-20 09:00N 35°01' E 136°48'0 0.0
2018-Jan-20 08:30N 35°01' E 136°48'0 0.0
2018-Jan-20 08:00N 35°01' E 136°48'0 0.0
2018-Jan-20 07:30N 35°01' E 136°48'0 0.0
2018-Jan-20 06:57N 35°01' E 136°48'0 0.0
2018-Jan-20 06:31N 35°01' E 136°48'1 2.3
2018-Jan-20 06:01N 35°00' E 136°48'5 9.8
2018-Jan-20 05:31N 34°56' E 136°46'816.1
2018-Jan-20 05:01N 34°47' E 136°47'816.2
2018-Jan-20 04:29N 34°40' E 136°51'715.0
2018-Jan-20 04:00N 34°36' E 136°58'3814.1
2018-Jan-20 01:17N 34°30' E 137°44'414.3
2018-Jan-20 01:00N 34°30' E 137°49'714.7
2018-Jan-20 00:30N 34°30' E 137°58'816.3
2018-Jan-20 00:00N 34°30' E 138°08'816.3
2018-Jan-19 23:29N 34°30' E 138°18'816.5
2018-Jan-19 22:59N 34°31' E 138°28'815.8
2018-Jan-19 22:30N 34°31' E 138°38'917.2
2018-Jan-19 21:58N 34°32' E 138°49'817.3
2018-Jan-19 21:30N 34°34' E 138°58'1117.8
2018-Jan-19 20:55N 34°42' E 139°06'717.2
2018-Jan-19 20:30N 34°47' E 139°12'916.9
2018-Jan-19 19:59N 34°53' E 139°20'816.0
2018-Jan-19 19:30N 34°57' E 139°27'815.7
2018-Jan-19 19:00N 35°02' E 139°35'816.1
2018-Jan-19 18:30N 35°06' E 139°43'714.8
2018-Jan-19 18:00N 35°13' E 139°46'611.7
2018-Jan-19 17:31N 35°19' E 139°43'611.3
2018-Jan-19 17:00N 35°24' E 139°43'3 7.0
2018-Jan-19 16:30N 35°28' E 139°42'0 0.2
2018-Jan-19 15:59N 35°28' E 139°42'0 0.0
2018-Jan-19 15:29N 35°28' E 139°42'0 0.0
2018-Jan-19 14:59N 35°28' E 139°42'0 0.0
2018-Jan-19 14:29N 35°28' E 139°42'0 0.0
2018-Jan-19 13:59N 35°28' E 139°42'0 0.0
2018-Jan-19 13:29N 35°28' E 139°42'0 0.0
2018-Jan-19 12:59N 35°28' E 139°42'0 0.0
2018-Jan-19 12:29N 35°28' E 139°42'0 0.0
2018-Jan-19 11:59N 35°28' E 139°42'0 0.0
2018-Jan-19 11:29N 35°28' E 139°42'0 0.0
2018-Jan-19 10:59N 35°28' E 139°42'0 0.0
2018-Jan-19 10:30N 35°28' E 139°42'0 0.7
2018-Jan-19 10:00N 35°28' E 139°42'3 5.2
2018-Jan-19 09:30N 35°27' E 139°45'510.2
2018-Jan-19 09:00N 35°29' E 139°51'611.4
2018-Jan-19 08:30N 35°35' E 139°48'3 5.2
2018-Jan-19 08:00N 35°37' E 139°46'0 0.0
2018-Jan-19 07:27N 35°37' E 139°46'0 0.0
2018-Jan-19 07:00N 35°37' E 139°46'0 0.0
2018-Jan-19 06:18N 35°37' E 139°46'0 0.0
2018-Jan-19 05:57N 35°37' E 139°46'0 0.0
2018-Jan-19 05:24N 35°37' E 139°46'0 0.0
2018-Jan-19 05:00N 35°37' E 139°46'0 0.0
2018-Jan-19 04:30N 35°37' E 139°46'0 0.0
2018-Jan-19 03:42N 35°37' E 139°46'0 0.0
2018-Jan-19 03:30N 35°37' E 139°46'0 0.0
2018-Jan-19 03:00N 35°37' E 139°46'0 0.0
2018-Jan-19 02:12N 35°37' E 139°46'0 0.0
2018-Jan-19 02:00N 35°37' E 139°46'0 0.0
2018-Jan-19 01:30N 35°37' E 139°46'0 0.0
2018-Jan-19 01:00N 35°37' E 139°46'0 0.0
2018-Jan-19 00:27N 35°37' E 139°46'0 0.0
2018-Jan-19 00:00N 35°37' E 139°46'0 0.0
2018-Jan-18 23:30N 35°37' E 139°46'0 0.0
2018-Jan-18 23:00N 35°37' E 139°46'1 2.1
2018-Jan-18 22:30N 35°36' E 139°47'5 9.9
2018-Jan-18 22:00N 35°33' E 139°51'510.1
2018-Jan-18 21:31N 35°28' E 139°49'4 6.3
2018-Jan-18 20:56N 35°29' E 139°45'0 0.0
2018-Jan-18 20:29N 35°29' E 139°45'0 0.0
2018-Jan-18 19:56N 35°29' E 139°45'0 0.0
2018-Jan-18 19:29N 35°29' E 139°45'0 0.0
2018-Jan-18 18:59N 35°29' E 139°45'0 0.0
2018-Jan-18 18:29N 35°29' E 139°45'0 0.0
2018-Jan-18 17:59N 35°29' E 139°45'0 0.0
2018-Jan-18 17:29N 35°29' E 139°45'0 0.0
2018-Jan-18 16:59N 35°29' E 139°45'0 0.0
2018-Jan-18 16:29N 35°29' E 139°45'0 0.0
2018-Jan-18 15:59N 35°29' E 139°45'0 0.0
2018-Jan-18 15:29N 35°29' E 139°45'0 0.0
2018-Jan-18 14:59N 35°29' E 139°45'0 0.9
2018-Jan-18 14:31N 35°29' E 139°45'3 6.7
2018-Jan-18 14:00N 35°26' E 139°47'611.9
2018-Jan-18 13:30N 35°20' E 139°44'611.7
2018-Jan-18 13:01N 35°15' E 139°47'713.4
2018-Jan-18 12:31N 35°08' E 139°47'714.5
2018-Jan-18 12:01N 35°02' E 139°42'814.8
2018-Jan-18 11:30N 34°58' E 139°35'814.9
2018-Jan-18 10:59N 34°53' E 139°27'714.9
2018-Jan-18 10:29N 34°48' E 139°20'815.1
2018-Jan-18 09:57N 34°43' E 139°13'715.2
2018-Jan-18 09:30N 34°39' E 139°06'815.6
2018-Jan-18 09:00N 34°33' E 138°59'815.3
2018-Jan-18 08:30N 34°33' E 138°50'815.2
2018-Jan-18 08:01N 34°32' E 138°41'815.3
2018-Jan-18 07:30N 34°31' E 138°32'815.5
2018-Jan-18 06:58N 34°31' E 138°22'714.4
2018-Jan-18 06:28N 34°30' E 138°13'715.0
2018-Jan-18 06:00N 34°30' E 138°04'815.6
2018-Jan-18 05:30N 34°30' E 137°55'2416.0
2018-Jan-18 04:01N 34°30' E 137°26'015.2
2018-Jan-18 04:00N 34°30' E 137°26'816.2
2018-Jan-18 03:30N 34°29' E 137°16'815.8
2018-Jan-18 03:00N 34°29' E 137°06'714.4
2018-Jan-18 02:31N 34°34' E 137°00'714.6
2018-Jan-18 02:00N 34°38' E 136°53'815.6
2018-Jan-18 01:30N 34°44' E 136°47'815.2
2018-Jan-18 01:00N 34°52' E 136°44'9 8.4
2018-Jan-17 23:58N 34°60' E 136°40'0 0.0
2018-Jan-17 23:55N 34°60' E 136°40'  
Track history (hours):
 
Tides and Currents Weather Stations Pressure Air Temp Water Temp Dewpoint Dewpoint Depression Visibility Wind Speed Wind Dir Waves Ship Positions

Eponyma

Last reported at 2018-Jan-21 15:47 UTC. Time now 2018-Jan-23 10:09 UTC.
Position N 34°02' E 129°49'.

Length 142 m; draft 7.7 m.

Type: Cargo ship. MMSI: 311000725.

Date/timePositionNaut miles runAvg speedWind from/ knotsBaromVisibWave heightAir tempDewpointWater temp
2018-Jan-21 15:47N 34°02' E 129°49'517.1
2018-Jan-21 15:30N 34°02' E 129°55'817.0
2018-Jan-21 15:00N 34°03' E 130°05'917.5
2018-Jan-21 14:30N 34°03' E 130°16'917.4
2018-Jan-21 14:00N 34°03' E 130°26'917.6
2018-Jan-21 13:30N 34°03' E 130°37'917.1
2018-Jan-21 13:00N 34°03' E 130°47'612.8
2018-Jan-21 12:30N 33°58' E 130°53'4 8.4
2018-Jan-21 12:01N 33°55' E 130°55'5 9.5
2018-Jan-21 11:30N 33°58' E 130°58'4 7.5
2018-Jan-21 11:01N 33°57' E 131°03'714.8
2018-Jan-21 10:31N 33°53' E 131°10'917.5
2018-Jan-21 10:01N 33°51' E 131°20'917.8
2018-Jan-21 09:31N 33°49' E 131°31'917.3
2018-Jan-21 09:01N 33°47' E 131°41'815.9
2018-Jan-21 08:30N 33°40' E 131°47'816.8
2018-Jan-21 08:01N 33°33' E 131°51'816.5
2018-Jan-21 07:30N 33°25' E 131°56'815.8
2018-Jan-21 07:00N 33°18' E 132°00'715.0
2018-Jan-21 06:31N 33°12' E 132°05'20615.1
2018-Jan-20 16:52N 33°41' E 136°10'1217.5
2018-Jan-20 16:10N 33°49' E 136°21'317.6
2018-Jan-20 16:00N 33°50' E 136°24'1217.9
2018-Jan-20 15:21N 33°58' E 136°34'818.0
2018-Jan-20 14:55N 34°03' E 136°41'718.0
2018-Jan-20 14:30N 34°08' E 136°48'2116.3
2018-Jan-20 13:12N 34°27' E 137°01'315.6
2018-Jan-20 13:00N 34°30' E 137°02'613.1
2018-Jan-20 12:30N 34°35' E 136°58'917.2
2018-Jan-20 12:00N 34°41' E 136°49'917.5
2018-Jan-20 11:31N 34°49' E 136°46'816.5
2018-Jan-20 11:01N 34°57' E 136°46'5 9.0
2018-Jan-20 10:30N 35°01' E 136°48'0 0.2
2018-Jan-20 10:00N 35°01' E 136°48'0 0.0
2018-Jan-20 09:30N 35°01' E 136°48'0 0.0
2018-Jan-20 09:00N 35°01' E 136°48'0 0.0
2018-Jan-20 08:30N 35°01' E 136°48'0 0.0
2018-Jan-20 08:00N 35°01' E 136°48'0 0.0
2018-Jan-20 07:30N 35°01' E 136°48'0 0.0
2018-Jan-20 06:57N 35°01' E 136°48'0 0.0
2018-Jan-20 06:31N 35°01' E 136°48'1 2.3
2018-Jan-20 06:01N 35°00' E 136°48'5 9.8
2018-Jan-20 05:31N 34°56' E 136°46'816.1
2018-Jan-20 05:01N 34°47' E 136°47'816.2
2018-Jan-20 04:29N 34°40' E 136°51'715.0
2018-Jan-20 04:00N 34°36' E 136°58'3814.1
2018-Jan-20 01:17N 34°30' E 137°44'414.3
2018-Jan-20 01:00N 34°30' E 137°49'714.7
2018-Jan-20 00:30N 34°30' E 137°58'816.3
2018-Jan-20 00:00N 34°30' E 138°08'816.3
2018-Jan-19 23:29N 34°30' E 138°18'816.5
2018-Jan-19 22:59N 34°31' E 138°28'815.8
2018-Jan-19 22:30N 34°31' E 138°38'917.2
2018-Jan-19 21:58N 34°32' E 138°49'817.3
2018-Jan-19 21:30N 34°34' E 138°58'1117.8
2018-Jan-19 20:55N 34°42' E 139°06'717.2
2018-Jan-19 20:30N 34°47' E 139°12'916.9
2018-Jan-19 19:59N 34°53' E 139°20'816.0
2018-Jan-19 19:30N 34°57' E 139°27'815.7
2018-Jan-19 19:00N 35°02' E 139°35'816.1
2018-Jan-19 18:30N 35°06' E 139°43'714.8
2018-Jan-19 18:00N 35°13' E 139°46'611.7
2018-Jan-19 17:31N 35°19' E 139°43'611.3
2018-Jan-19 17:00N 35°24' E 139°43'3 7.0
2018-Jan-19 16:30N 35°28' E 139°42'0 0.2
2018-Jan-19 15:59N 35°28' E 139°42'0 0.0
2018-Jan-19 15:29N 35°28' E 139°42'0 0.0
2018-Jan-19 14:59N 35°28' E 139°42'0 0.0
2018-Jan-19 14:29N 35°28' E 139°42'0 0.0
2018-Jan-19 13:59N 35°28' E 139°42'0 0.0
2018-Jan-19 13:29N 35°28' E 139°42'0 0.0
2018-Jan-19 12:59N 35°28' E 139°42'0 0.0
2018-Jan-19 12:29N 35°28' E 139°42'0 0.0
2018-Jan-19 11:59N 35°28' E 139°42'0 0.0
2018-Jan-19 11:29N 35°28' E 139°42'0 0.0
2018-Jan-19 10:59N 35°28' E 139°42'0 0.0
2018-Jan-19 10:30N 35°28' E 139°42'0 0.7
2018-Jan-19 10:00N 35°28' E 139°42'3 5.2
2018-Jan-19 09:30N 35°27' E 139°45'510.2
2018-Jan-19 09:00N 35°29' E 139°51'611.4
2018-Jan-19 08:30N 35°35' E 139°48'3 5.2
2018-Jan-19 08:00N 35°37' E 139°46'0 0.0
2018-Jan-19 07:27N 35°37' E 139°46'0 0.0
2018-Jan-19 07:00N 35°37' E 139°46'0 0.0
2018-Jan-19 06:18N 35°37' E 139°46'0 0.0
2018-Jan-19 05:57N 35°37' E 139°46'0 0.0
2018-Jan-19 05:24N 35°37' E 139°46'0 0.0
2018-Jan-19 05:00N 35°37' E 139°46'0 0.0
2018-Jan-19 04:30N 35°37' E 139°46'0 0.0
2018-Jan-19 03:42N 35°37' E 139°46'0 0.0
2018-Jan-19 03:30N 35°37' E 139°46'0 0.0
2018-Jan-19 03:00N 35°37' E 139°46'0 0.0
2018-Jan-19 02:12N 35°37' E 139°46'0 0.0
2018-Jan-19 02:00N 35°37' E 139°46'0 0.0
2018-Jan-19 01:30N 35°37' E 139°46'0 0.0
2018-Jan-19 01:00N 35°37' E 139°46'0 0.0
2018-Jan-19 00:27N 35°37' E 139°46'0 0.0
2018-Jan-19 00:00N 35°37' E 139°46'0 0.0
2018-Jan-18 23:30N 35°37' E 139°46'0 0.0
2018-Jan-18 23:00N 35°37' E 139°46'1 2.1
2018-Jan-18 22:30N 35°36' E 139°47'5 9.9
2018-Jan-18 22:00N 35°33' E 139°51'510.1
2018-Jan-18 21:31N 35°28' E 139°49'4 6.3
2018-Jan-18 20:56N 35°29' E 139°45'0 0.0
2018-Jan-18 20:29N 35°29' E 139°45'0 0.0
2018-Jan-18 19:56N 35°29' E 139°45'0 0.0
2018-Jan-18 19:29N 35°29' E 139°45'0 0.0
2018-Jan-18 18:59N 35°29' E 139°45'0 0.0
2018-Jan-18 18:29N 35°29' E 139°45'0 0.0
2018-Jan-18 17:59N 35°29' E 139°45'0 0.0
2018-Jan-18 17:29N 35°29' E 139°45'0 0.0
2018-Jan-18 16:59N 35°29' E 139°45'0 0.0
2018-Jan-18 16:29N 35°29' E 139°45'0 0.0
2018-Jan-18 15:59N 35°29' E 139°45'0 0.0
2018-Jan-18 15:29N 35°29' E 139°45'0 0.0
2018-Jan-18 14:59N 35°29' E 139°45'0 0.9
2018-Jan-18 14:31N 35°29' E 139°45'3 6.7
2018-Jan-18 14:00N 35°26' E 139°47'611.9
2018-Jan-18 13:30N 35°20' E 139°44'611.7
2018-Jan-18 13:01N 35°15' E 139°47'713.4
2018-Jan-18 12:31N 35°08' E 139°47'714.5
2018-Jan-18 12:01N 35°02' E 139°42'814.8
2018-Jan-18 11:30N 34°58' E 139°35'814.9
2018-Jan-18 10:59N 34°53' E 139°27'714.9
2018-Jan-18 10:29N 34°48' E 139°20'815.1
2018-Jan-18 09:57N 34°43' E 139°13'715.2
2018-Jan-18 09:30N 34°39' E 139°06'815.6
2018-Jan-18 09:00N 34°33' E 138°59'815.3
2018-Jan-18 08:30N 34°33' E 138°50'815.2
2018-Jan-18 08:01N 34°32' E 138°41'815.3
2018-Jan-18 07:30N 34°31' E 138°32'815.5
2018-Jan-18 06:58N 34°31' E 138°22'714.4
2018-Jan-18 06:28N 34°30' E 138°13'715.0
2018-Jan-18 06:00N 34°30' E 138°04'815.6
2018-Jan-18 05:30N 34°30' E 137°55'2416.0
2018-Jan-18 04:01N 34°30' E 137°26'015.2
2018-Jan-18 04:00N 34°30' E 137°26'816.2
2018-Jan-18 03:30N 34°29' E 137°16'815.8
2018-Jan-18 03:00N 34°29' E 137°06'714.4
2018-Jan-18 02:31N 34°34' E 137°00'714.6
2018-Jan-18 02:00N 34°38' E 136°53'815.6
2018-Jan-18 01:30N 34°44' E 136°47'815.2
2018-Jan-18 01:00N 34°52' E 136°44'9 8.4
2018-Jan-17 23:58N 34°60' E 136°40'0 0.0
2018-Jan-17 23:55N 34°60' E 136°40'  

Dump ship's entire track history